Time;durP1;ratioP1;P1;durP2;ratioP2;P2;SDS_P1;SDS_P2;PMS_P1;PMS_P2;Temp;Humidity;BMP_temperature;BMP_pressure;BME280_temperature;BME280_humidity;BME280_pressure;Samples;Min_cycle;Max_cycle;Signal;HPM_P1;HPM_P2
2022/12/25 00:01:06;;;;;;;;;;;;;;;-145.88;100.00;58037.16;6095593;19;1714;-69
2022/12/25 00:03:10;;;;;;;;;;;;;;;-145.88;100.00;58037.16;6106913;19;1894;-69
2022/12/25 00:05:13;;;;;;;;;;;;;;;-145.88;100.00;58037.16;6095314;19;1694;-68
2022/12/25 00:07:19;;;;;;;;;;;;;;;-145.88;100.00;58037.16;6061354;19;1644;-66
2022/12/25 00:09:22;;;;;;;;;;;;;;;-145.88;100.00;58037.16;6094547;19;1779;-67
2022/12/25 00:11:26;;;;;;;;;;;;;;;-145.88;100.00;58037.16;6096302;19;1688;-68
2022/12/25 00:13:29;;;;;;;;;;;;;;;-145.88;100.00;58037.16;6093463;19;1674;-68
2022/12/25 00:15:32;;;;;;;;;;;;;;;-145.88;100.00;58037.16;6089730;19;1881;-68
2022/12/25 00:17:36;;;;;;;;;;;;;;;-145.88;100.00;58037.16;6075387;19;1459;-68
2022/12/25 00:19:39;;;;;;;;;;;;;;;-145.88;100.00;58037.16;6082044;19;1788;-68
2022/12/25 00:21:42;;;;;;;;;;;;;;;-145.88;100.00;58037.16;6090529;19;2003;-68
2022/12/25 00:23:48;;;;;;;;;;;;;;;-145.88;100.00;58037.16;6095269;19;1726;-67
2022/12/25 00:25:51;;;;;;;;;;;;;;;-145.88;100.00;58037.16;6087129;19;1795;-68
2022/12/25 00:27:55;;;;;;;;;;;;;;;-145.88;100.00;58037.16;6088517;19;1730;-68
2022/12/25 00:29:58;;;;;;;;;;;;;;;-145.88;100.00;58037.16;6066936;19;1819;-68
2022/12/25 00:32:01;;;;;;;;;;;;;;;-145.88;100.00;58037.16;6095468;19;1808;-68
2022/12/25 00:34:05;;;;;;;;;;;;;;;-145.88;100.00;58037.16;6092637;19;1798;-69
2022/12/25 00:36:08;;;;;;;;;;;;;;;-145.88;100.00;58037.16;6079925;19;1854;-68
2022/12/25 00:38:11;;;;;;;;;;;;;;;-145.88;100.00;58037.16;6088339;19;1331;-68
2022/12/25 00:40:18;;;;;;;;;;;;;;;-145.88;100.00;58037.16;6081708;19;1593;-68
2022/12/25 00:42:18;;;;;;;;;;;;;;;-145.88;100.00;58037.16;6078170;19;1814;-68
2022/12/25 00:44:21;;;;;;;;;;;;;;;-145.88;100.00;58037.16;6093914;19;1698;-68
2022/12/25 00:46:25;;;;;;;;;;;;;;;-145.88;100.00;58037.16;6096844;19;1486;-68
2022/12/25 00:48:32;;;;;;;;;;;;;;;-145.88;100.00;58037.16;6100468;19;1477;-68
2022/12/25 00:50:35;;;;;;;;;;;;;;;-145.88;100.00;58037.16;6106393;19;1474;-68
2022/12/25 00:52:38;;;;;;;;;;;;;;;-145.88;100.00;58037.16;6077483;19;1036;-69
2022/12/25 00:54:42;;;;;;;;;;;;;;;-145.88;100.00;58037.16;6092887;19;1841;-69
2022/12/25 00:56:48;;;;;;;;;;;;;;;-145.88;100.00;58037.16;6081459;19;1702;-69
2022/12/25 00:58:51;;;;;;;;;;;;;;;-145.88;100.00;58037.16;6089815;19;2538;-68
2022/12/25 01:00:55;;;;;;;;;;;;;;;-145.88;100.00;58037.16;6092366;19;1772;-68
2022/12/25 01:02:58;;;;;;;;;;;;;;;-145.88;100.00;58037.16;6078385;19;1323;-68
2022/12/25 01:05:02;;;;;;;;;;;;;;;-145.88;100.00;58037.16;6075774;19;1907;-68
2022/12/25 01:07:05;;;;;;;;;;;;;;;-145.88;100.00;58037.16;6089186;19;1210;-68
2022/12/25 01:11:24;;;;;;;;;;;;;;;-145.88;100.00;58037.16;6094548;19;1734;-68
2022/12/25 01:13:30;;;;;;;;;;;;;;;-145.88;100.00;58037.16;6091161;19;1719;-68
2022/12/25 01:15:33;;;;;;;;;;;;;;;-145.88;100.00;58037.16;6064865;19;1855;-68
2022/12/25 01:17:37;;;;;;;;;;;;;;;-145.88;100.00;58037.16;6070780;19;1739;-68
2022/12/25 01:19:40;;;;;;;;;;;;;;;-145.88;100.00;58037.16;6092906;19;1847;-68
2022/12/25 01:21:43;;;;;;;;;;;;;;;-145.88;100.00;58037.16;6090625;19;1073;-68
2022/12/25 01:23:47;;;;;;;;;;;;;;;-145.88;100.00;58037.16;6092065;19;1811;-68
2022/12/25 01:25:50;;;;;;;;;;;;;;;-145.88;100.00;58037.16;6079131;19;1159;-67
2022/12/25 01:27:53;;;;;;;;;;;;;;;-145.88;100.00;58037.16;6061998;19;1716;-68
2022/12/25 01:29:59;;;;;;;;;;;;;;;-145.88;100.00;58037.16;6092889;19;1704;-68
2022/12/25 01:32:03;;;;;;;;;;;;;;;-145.88;100.00;58037.16;6094009;19;1827;-68
2022/12/25 01:34:06;;;;;;;;;;;;;;;-145.88;100.00;58037.16;6092675;19;1647;-67
2022/12/25 01:36:13;;;;;;;;;;;;;;;-145.88;100.00;58037.16;6092950;19;1853;-68
2022/12/25 01:38:17;;;;;;;;;;;;;;;-145.88;100.00;58037.16;6055951;19;1502;-68
2022/12/25 01:40:20;;;;;;;;;;;;;;;-145.88;100.00;58037.16;6092992;19;1703;-67
2022/12/25 01:42:25;;;;;;;;;;;;;;;-145.88;100.00;58037.16;6089869;19;1124;-70
2022/12/25 01:44:43;;;;;;;;;;;;;;;-145.88;100.00;58037.16;6093211;19;1708;-70
2022/12/25 01:46:49;;;;;;;;;;;;;;;-145.88;100.00;58037.16;6093916;19;1073;-70
2022/12/25 01:48:53;;;;;;;;;;;;;;;-145.88;100.00;58037.16;6056955;19;1398;-69
2022/12/25 01:50:57;;;;;;;;;;;;;;;-145.88;100.00;58037.16;6089480;19;1695;-70
2022/12/25 01:53:01;;;;;;;;;;;;;;;-145.88;100.00;58037.16;6092482;19;1673;-70
2022/12/25 01:55:08;;;;;;;;;;;;;;;-145.88;100.00;58037.16;6092925;19;1860;-70
2022/12/25 01:57:13;;;;;;;;;;;;;;;-145.88;100.00;58037.16;6086935;19;1451;-70
2022/12/25 01:59:19;;;;;;;;;;;;;;;-145.88;100.00;58037.16;6085421;19;1498;-69
2022/12/25 02:01:22;;;;;;;;;;;;;;;-145.88;100.00;58037.16;6076485;19;1509;-70
2022/12/25 02:03:28;;;;;;;;;;;;;;;-145.88;100.00;58037.16;6091231;19;1886;-70
2022/12/25 02:05:32;;;;;;;;;;;;;;;-145.88;100.00;58037.16;6092493;19;1646;-70
2022/12/25 02:07:40;;;;;;;;;;;;;;;-145.88;100.00;58037.16;6081386;19;1571;-70
2022/12/25 02:09:43;;;;;;;;;;;;;;;-145.88;100.00;58037.16;6098721;19;1682;-70
2022/12/25 02:11:59;;;;;;;;;;;;;;;-145.88;100.00;58037.16;6061995;19;1420;-69
2022/12/25 02:14:02;;;;;;;;;;;;;;;-145.88;100.00;58037.16;6093751;19;1616;-70
2022/12/25 02:16:07;;;;;;;;;;;;;;;-145.88;100.00;58037.16;6096215;19;1842;-69
2022/12/25 02:18:13;;;;;;;;;;;;;;;-145.88;100.00;58037.16;6089770;19;1405;-71
2022/12/25 02:20:37;;;;;;;;;;;;;;;-145.88;100.00;58037.16;6097087;19;1822;-70
2022/12/25 02:22:51;;;;;;;;;;;;;;;-145.88;100.00;58037.16;6068436;19;1815;-69
2022/12/25 02:24:59;;;;;;;;;;;;;;;-145.88;100.00;58037.16;6098030;19;1686;-70
2022/12/25 02:27:08;;;;;;;;;;;;;;;-145.88;100.00;58037.16;6093455;19;1554;-68
2022/12/25 02:29:19;;;;;;;;;;;;;;;-145.88;100.00;58037.16;6096198;19;1480;-68
2022/12/25 02:31:26;;;;;;;;;;;;;;;-145.88;100.00;58037.16;6101685;19;1764;-70
2022/12/25 02:35:52;;;;;;;;;;;;;;;-145.88;100.00;58037.16;6094947;19;1846;-69
2022/12/25 02:37:58;;;;;;;;;;;;;;;-145.88;100.00;58037.16;6095215;19;1431;-69
2022/12/25 02:40:01;;;;;;;;;;;;;;;-145.88;100.00;58037.16;6106427;19;1657;-70
2022/12/25 02:42:07;;;;;;;;;;;;;;;-145.88;100.00;58037.16;6106624;19;1034;-70
2022/12/25 03:07:09;;;;;;;;;;;;;;;-145.88;100.00;58037.16;6092556;19;1484;-69
2022/12/25 03:11:32;;;;;;;;;;;;;;;-145.88;100.00;58037.16;6102992;19;1540;-70
2022/12/25 03:13:38;;;;;;;;;;;;;;;-145.88;100.00;58037.16;6106572;19;1850;-69
2022/12/25 03:18:00;;;;;;;;;;;;;;;-145.88;100.00;58037.16;6088073;19;1139;-69
2022/12/25 03:27:00;;;;;;;;;;;;;;;-145.88;100.00;58037.16;6094289;19;1734;-70
2022/12/25 03:29:03;;;;;;;;;;;;;;;-145.88;100.00;58037.16;6080642;19;1424;-70
2022/12/25 03:31:12;;;;;;;;;;;;;;;-145.88;100.00;58037.16;6079961;19;1689;-69
2022/12/25 03:33:22;;;;;;;;;;;;;;;-145.88;100.00;58037.16;6093804;19;1760;-69
2022/12/25 03:35:25;;;;;;;;;;;;;;;-145.88;100.00;58037.16;6097346;19;1845;-69
2022/12/25 04:37:32;;;;;;;;;;;;;;;-145.88;100.00;58037.16;6085416;19;1238;-68
2022/12/25 04:39:35;;;;;;;;;;;;;;;-145.88;100.00;58037.16;6065500;19;1615;-67
2022/12/25 04:41:39;;;;;;;;;;;;;;;-145.88;100.00;58037.16;6092369;19;1738;-68
2022/12/25 04:43:42;;;;;;;;;;;;;;;-145.88;100.00;58037.16;6085215;19;1913;-71
2022/12/25 04:45:53;;;;;;;;;;;;;;;-145.88;100.00;58037.16;6093950;19;1844;-70
2022/12/25 04:47:56;;;;;;;;;;;;;;;-145.88;100.00;58037.16;6083510;19;1379;-70
2022/12/25 04:49:59;;;;;;;;;;;;;;;-145.88;100.00;58037.16;6078568;19;1841;-70
2022/12/25 04:52:03;;;;;;;;;;;;;;;-145.88;100.00;58037.16;6078541;19;1674;-70
2022/12/25 04:54:09;;;;;;;;;;;;;;;-145.88;100.00;58037.16;6084254;19;1640;-71
2022/12/25 04:56:12;;;;;;;;;;;;;;;-145.88;100.00;58037.16;6090675;19;1845;-70
2022/12/25 04:58:16;;;;;;;;;;;;;;;-145.88;100.00;58037.16;6085048;19;1463;-70
2022/12/25 05:00:20;;;;;;;;;;;;;;;-145.88;100.00;58037.16;6091813;19;1915;-71
2022/12/25 05:02:23;;;;;;;;;;;;;;;-145.88;100.00;58037.16;6065105;19;1873;-70
2022/12/25 05:04:26;;;;;;;;;;;;;;;-145.88;100.00;58037.16;6095060;19;1835;-70
2022/12/25 05:06:30;;;;;;;;;;;;;;;-145.88;100.00;58037.16;6093240;19;1727;-70
2022/12/25 05:08:34;;;;;;;;;;;;;;;-145.88;100.00;58037.16;6085055;19;1370;-67
2022/12/25 05:10:41;;;;;;;;;;;;;;;-145.88;100.00;58037.16;6093084;19;1685;-68
2022/12/25 05:12:44;;;;;;;;;;;;;;;-145.88;100.00;58037.16;6086417;19;1828;-69
2022/12/25 05:14:47;;;;;;;;;;;;;;;-145.88;100.00;58037.16;6063505;19;1755;-69
2022/12/25 05:16:51;;;;;;;;;;;;;;;-145.88;100.00;58037.16;6092013;19;1858;-69
2022/12/25 05:18:57;;;;;;;;;;;;;;;-145.88;100.00;58037.16;6086365;19;1832;-69
2022/12/25 05:21:00;;;;;;;;;;;;;;;-145.88;100.00;58037.16;6096271;19;1710;-69
2022/12/25 05:23:03;;;;;;;;;;;;;;;-145.88;100.00;58037.16;6104095;19;1028;-69
2022/12/25 05:25:07;;;;;;;;;;;;;;;-145.88;100.00;58037.16;6071690;19;1752;-69
2022/12/25 05:27:13;;;;;;;;;;;;;;;-145.88;100.00;58037.16;6087345;19;1300;-69
2022/12/25 05:29:16;;;;;;;;;;;;;;;-145.88;100.00;58037.16;6092228;19;1452;-69
2022/12/25 05:31:20;;;;;;;;;;;;;;;-145.88;100.00;58037.16;6093408;19;1817;-68
2022/12/25 05:33:23;;;;;;;;;;;;;;;-145.88;100.00;58037.16;6093796;19;1802;-68
2022/12/25 05:35:27;;;;;;;;;;;;;;;-145.88;100.00;58037.16;6075095;19;1677;-69
2022/12/25 05:37:30;;;;;;;;;;;;;;;-145.88;100.00;58037.16;6065301;19;1853;-69
2022/12/25 05:39:33;;;;;;;;;;;;;;;-145.88;100.00;58037.16;6091107;19;1601;-68
2022/12/25 05:41:36;;;;;;;;;;;;;;;-145.88;100.00;58037.16;6092606;19;1735;-69
2022/12/25 05:43:42;;;;;;;;;;;;;;;-145.88;100.00;58037.16;6092224;19;1730;-69
2022/12/25 05:45:46;;;;;;;;;;;;;;;-145.88;100.00;58037.16;6081564;19;1732;-69
2022/12/25 05:47:49;;;;;;;;;;;;;;;-145.88;100.00;58037.16;6055500;19;1579;-71
2022/12/25 05:49:52;;;;;;;;;;;;;;;-145.88;100.00;58037.16;6087084;19;1813;-68
2022/12/25 05:51:55;;;;;;;;;;;;;;;-145.88;100.00;58037.16;6090760;19;1740;-68
2022/12/25 05:53:59;;;;;;;;;;;;;;;-145.88;100.00;58037.16;6088319;19;1801;-69
2022/12/25 05:56:03;;;;;;;;;;;;;;;-145.88;100.00;58037.16;6083768;19;1830;-69
2022/12/25 05:58:07;;;;;;;;;;;;;;;-145.88;100.00;58037.16;6083578;19;1347;-66
2022/12/25 06:00:13;;;;;;;;;;;;;;;-145.88;100.00;58037.16;6062996;19;1594;-71
2022/12/25 06:02:17;;;;;;;;;;;;;;;-145.88;100.00;58037.16;6088602;19;1285;-70
2022/12/25 06:04:20;;;;;;;;;;;;;;;-145.88;100.00;58037.16;6089746;19;1069;-72
2022/12/25 06:06:23;;;;;;;;;;;;;;;-145.88;100.00;58037.16;6086163;19;1722;-71
2022/12/25 06:08:27;;;;;;;;;;;;;;;-145.88;100.00;58037.16;6081371;19;1387;-72
2022/12/25 06:10:30;;;;;;;;;;;;;;;-145.88;100.00;58037.16;6079989;19;1725;-70
2022/12/25 06:12:33;;;;;;;;;;;;;;;-145.88;100.00;58037.16;6090229;19;1709;-71
2022/12/25 06:14:37;;;;;;;;;;;;;;;-145.88;100.00;58037.16;6103067;19;1707;-70
2022/12/25 06:16:43;;;;;;;;;;;;;;;-145.88;100.00;58037.16;6089656;19;1908;-70
2022/12/25 06:18:48;;;;;;;;;;;;;;;-145.88;100.00;58037.16;6087676;19;1396;-70
2022/12/25 06:20:51;;;;;;;;;;;;;;;-145.88;100.00;58037.16;6090558;19;1884;-70
2022/12/25 06:22:54;;;;;;;;;;;;;;;-145.88;100.00;58037.16;6063485;19;1852;-71
2022/12/25 06:24:58;;;;;;;;;;;;;;;-145.88;100.00;58037.16;6092079;19;1854;-70
2022/12/25 06:27:01;;;;;;;;;;;;;;;-145.88;100.00;58037.16;6086310;19;1695;-70
2022/12/25 06:29:04;;;;;;;;;;;;;;;-145.88;100.00;58037.16;6076464;19;1203;-71
2022/12/25 06:31:08;;;;;;;;;;;;;;;-145.88;100.00;58037.16;6088052;19;1763;-70
2022/12/25 06:33:14;;;;;;;;;;;;;;;-145.88;100.00;58037.16;6078743;19;1702;-69
2022/12/25 06:35:17;;;;;;;;;;;;;;;-145.88;100.00;58037.16;6078016;19;1506;-70
2022/12/25 06:37:21;;;;;;;;;;;;;;;-145.88;100.00;58037.16;6082123;19;1834;-70
2022/12/25 06:39:24;;;;;;;;;;;;;;;-145.88;100.00;58037.16;6083364;19;1505;-71
2022/12/25 06:41:29;;;;;;;;;;;;;;;-145.88;100.00;58037.16;6088292;19;1701;-71
2022/12/25 06:43:32;;;;;;;;;;;;;;;-145.88;100.00;58037.16;6090692;19;1552;-70
2022/12/25 06:45:36;;;;;;;;;;;;;;;-145.88;100.00;58037.16;6061025;19;1454;-70
2022/12/25 06:47:40;;;;;;;;;;;;;;;-145.88;100.00;58037.16;6080473;19;1279;-70
2022/12/25 06:49:45;;;;;;;;;;;;;;;-145.88;100.00;58037.16;6079776;19;1685;-70
2022/12/25 06:51:49;;;;;;;;;;;;;;;-145.88;100.00;58037.16;6092395;19;1656;-71
2022/12/25 06:53:52;;;;;;;;;;;;;;;-145.88;100.00;58037.16;6092171;19;1686;-71
2022/12/25 06:55:56;;;;;;;;;;;;;;;-145.88;100.00;58037.16;6087385;19;1348;-71
2022/12/25 06:57:59;;;;;;;;;;;;;;;-145.88;100.00;58037.16;6070784;19;1851;-73
2022/12/25 07:00:03;;;;;;;;;;;;;;;-145.88;100.00;58037.16;6096408;19;1757;-73
2022/12/25 07:02:06;;;;;;;;;;;;;;;-145.88;100.00;58037.16;6098025;19;1769;-73
2022/12/25 07:04:12;;;;;;;;;;;;;;;-145.88;100.00;58037.16;6107660;19;1810;-75
2022/12/25 07:06:18;;;;;;;;;;;;;;;-145.88;100.00;58037.16;6098575;19;1822;-71
2022/12/25 07:08:22;;;;;;;;;;;;;;;-145.88;100.00;58037.16;6062461;19;1563;-71
2022/12/25 07:10:25;;;;;;;;;;;;;;;-145.88;100.00;58037.16;6094423;19;1766;-72
2022/12/25 07:12:28;;;;;;;;;;;;;;;-145.88;100.00;58037.16;6095464;19;1522;-72
2022/12/25 07:14:32;;;;;;;;;;;;;;;-145.88;100.00;58037.16;6096058;19;1717;-72
2022/12/25 07:16:35;;;;;;;;;;;;;;;-145.88;100.00;58037.16;6095800;19;1841;-72
2022/12/25 07:18:38;;;;;;;;;;;;;;;-145.88;100.00;58037.16;6080882;19;1579;-74
2022/12/25 07:20:42;;;;;;;;;;;;;;;-145.88;100.00;58037.16;6072422;19;1389;-74
2022/12/25 07:22:48;;;;;;;;;;;;;;;-145.88;100.00;58037.16;6097785;19;1168;-73
2022/12/25 07:24:51;;;;;;;;;;;;;;;-145.88;100.00;58037.16;6097643;19;1496;-74
2022/12/25 07:26:54;;;;;;;;;;;;;;;-145.88;100.00;58037.16;6094368;19;1776;-72
2022/12/25 07:28:58;;;;;;;;;;;;;;;-145.88;100.00;58037.16;6089879;19;1582;-72
2022/12/25 07:31:05;;;;;;;;;;;;;;;-145.88;100.00;58037.16;6071090;19;1506;-73
2022/12/25 07:33:08;;;;;;;;;;;;;;;-145.88;100.00;58037.16;6094583;19;1593;-73
2022/12/25 07:35:12;;;;;;;;;;;;;;;-145.88;100.00;58037.16;6095445;19;1842;-73
2022/12/25 07:37:15;;;;;;;;;;;;;;;-145.88;100.00;58037.16;6086651;19;1845;-72
2022/12/25 07:39:22;;;;;;;;;;;;;;;-145.88;100.00;58037.16;6093708;19;1539;-72
2022/12/25 07:41:25;;;;;;;;;;;;;;;-145.88;100.00;58037.16;6084890;19;1418;-72
2022/12/25 07:43:29;;;;;;;;;;;;;;;-145.88;100.00;58037.16;6070771;19;1492;-71
2022/12/25 07:45:32;;;;;;;;;;;;;;;-145.88;100.00;58037.16;6095447;19;1670;-72
2022/12/25 07:47:35;;;;;;;;;;;;;;;-145.88;100.00;58037.16;6087276;19;1404;-72
2022/12/25 07:49:39;;;;;;;;;;;;;;;-145.88;100.00;58037.16;6095546;19;1682;-72
2022/12/25 07:51:42;;;;;;;;;;;;;;;-145.88;100.00;58037.16;6087375;19;1461;-72
2022/12/25 07:53:45;;;;;;;;;;;;;;;-145.88;100.00;58037.16;6070394;19;1703;-71
2022/12/25 07:55:57;;;;;;;;;;;;;;;-145.88;100.00;58037.16;6094323;19;1184;-72
2022/12/25 07:58:00;;;;;;;;;;;;;;;-145.88;100.00;58037.16;6084887;19;2209;-73
2022/12/25 08:00:04;;;;;;;;;;;;;;;-145.88;100.00;58037.16;6093000;19;1560;-73
2022/12/25 08:02:08;;;;;;;;;;;;;;;-145.88;100.00;58037.16;6090345;19;1732;-73
2022/12/25 08:04:11;;;;;;;;;;;;;;;-145.88;100.00;58037.16;6106603;19;1047;-74
2022/12/25 08:06:15;;;;;;;;;;;;;;;-145.88;100.00;58037.16;6075911;19;1738;-73
2022/12/25 08:08:18;;;;;;;;;;;;;;;-145.88;100.00;58037.16;6090016;19;1407;-73
2022/12/25 08:10:21;;;;;;;;;;;;;;;-145.88;100.00;58037.16;6093741;19;1032;-74
2022/12/25 08:12:28;;;;;;;;;;;;;;;-145.88;100.00;58037.16;6093607;19;1116;-73
2022/12/25 08:14:31;;;;;;;;;;;;;;;-145.88;100.00;58037.16;6087937;19;1420;-73
2022/12/25 08:16:35;;;;;;;;;;;;;;;-145.88;100.00;58037.16;6078398;19;1781;-73
2022/12/25 08:18:38;;;;;;;;;;;;;;;-145.88;100.00;58037.16;6077543;19;1849;-73
2022/12/25 08:20:42;;;;;;;;;;;;;;;-145.88;100.00;58037.16;6092020;19;1687;-72
2022/12/25 08:22:46;;;;;;;;;;;;;;;-145.88;100.00;58037.16;6095351;19;1718;-73
2022/12/25 08:24:49;;;;;;;;;;;;;;;-145.88;100.00;58037.16;6088777;19;1899;-72
2022/12/25 08:26:52;;;;;;;;;;;;;;;-145.88;100.00;58037.16;6104289;19;1789;-71
2022/12/25 08:28:58;;;;;;;;;;;;;;;-145.88;100.00;58037.16;6057092;19;1471;-72
2022/12/25 08:31:07;;;;;;;;;;;;;;;-145.88;100.00;58037.16;6094244;19;1676;-71
2022/12/25 08:33:10;;;;;;;;;;;;;;;-145.88;100.00;58037.16;6094627;19;1842;-72
2022/12/25 08:35:13;;;;;;;;;;;;;;;-145.88;100.00;58037.16;6088006;19;1667;-73
2022/12/25 08:37:17;;;;;;;;;;;;;;;-145.88;100.00;58037.16;6085038;19;1845;-73
2022/12/25 08:39:20;;;;;;;;;;;;;;;-145.88;100.00;58037.16;6082112;19;1487;-72
2022/12/25 08:41:24;;;;;;;;;;;;;;;-145.88;100.00;58037.16;6089986;19;1078;-71
2022/12/25 08:43:27;;;;;;;;;;;;;;;-145.88;100.00;58037.16;6104002;19;1035;-72
2022/12/25 08:45:34;;;;;;;;;;;;;;;-145.88;100.00;58037.16;6100432;19;2008;-73
2022/12/25 08:47:37;;;;;;;;;;;;;;;-145.88;100.00;58037.16;6097640;19;1241;-73
2022/12/25 08:49:40;;;;;;;;;;;;;;;-145.88;100.00;58037.16;6102841;19;1784;-74
2022/12/25 08:51:45;;;;;;;;;;;;;;;-145.88;100.00;58037.16;6077990;19;1683;-72
2022/12/25 08:53:49;;;;;;;;;;;;;;;-145.88;100.00;58037.16;6095891;19;1911;-73
2022/12/25 08:55:58;;;;;;;;;;;;;;;-145.88;100.00;58037.16;6090847;19;1707;-72
2022/12/25 08:58:01;;;;;;;;;;;;;;;-145.88;100.00;58037.16;6083853;19;1855;-73
2022/12/25 09:00:05;;;;;;;;;;;;;;;-145.88;100.00;58037.16;6093347;19;1802;-72
2022/12/25 09:02:12;;;;;;;;;;;;;;;-145.88;100.00;58037.16;6079971;19;1603;-73
2022/12/25 09:04:15;;;;;;;;;;;;;;;-145.88;100.00;58037.16;6078757;19;1814;-74
2022/12/25 09:06:19;;;;;;;;;;;;;;;-145.88;100.00;58037.16;6090924;19;1719;-73
2022/12/25 09:08:22;;;;;;;;;;;;;;;-145.88;100.00;58037.16;6085280;19;1778;-72
2022/12/25 09:10:26;;;;;;;;;;;;;;;-145.88;100.00;58037.16;6102102;19;1727;-73
2022/12/25 09:12:29;;;;;;;;;;;;;;;-145.88;100.00;58037.16;6104533;19;1635;-73
2022/12/25 09:14:33;;;;;;;;;;;;;;;-145.88;100.00;58037.16;6065459;19;1201;-73
2022/12/25 09:16:36;;;;;;;;;;;;;;;-145.88;100.00;58037.16;6089159;19;1129;-74
2022/12/25 09:18:42;;;;;;;;;;;;;;;-145.88;100.00;58037.16;6080308;19;1853;-72
2022/12/25 09:20:45;;;;;;;;;;;;;;;-145.88;100.00;58037.16;6088763;19;1028;-73
2022/12/25 09:22:49;;;;;;;;;;;;;;;-145.88;100.00;58037.16;6088556;19;1383;-73
2022/12/25 09:24:52;;;;;;;;;;;;;;;-145.88;100.00;58037.16;6075238;19;1141;-72
2022/12/25 09:26:56;;;;;;;;;;;;;;;-145.88;100.00;58037.16;6073306;19;1579;-73
2022/12/25 09:28:59;;;;;;;;;;;;;;;-145.88;100.00;58037.16;6086360;19;1303;-73
2022/12/25 09:31:02;;;;;;;;;;;;;;;-145.88;100.00;58037.16;6088776;19;1113;-72
2022/12/25 09:33:06;;;;;;;;;;;;;;;-145.88;100.00;58037.16;6085967;19;1437;-74
2022/12/25 09:35:16;;;;;;;;;;;;;;;-145.88;100.00;58037.16;6090382;19;1761;-72
2022/12/25 09:37:19;;;;;;;;;;;;;;;-145.88;100.00;58037.16;6052608;19;1372;-72
2022/12/25 09:39:23;;;;;;;;;;;;;;;-145.88;100.00;58037.16;6089494;19;1853;-72
2022/12/25 09:41:30;;;;;;;;;;;;;;;-145.88;100.00;58037.16;6086948;19;1001;-72
2022/12/25 09:43:35;;;;;;;;;;;;;;;-145.88;100.00;58037.16;6093607;19;1398;-72
2022/12/25 09:45:41;;;;;;;;;;;;;;;-145.88;100.00;58037.16;6091484;19;1617;-72
2022/12/25 09:47:46;;;;;;;;;;;;;;;-145.88;100.00;58037.16;6069114;19;1845;-73
2022/12/25 09:49:52;;;;;;;;;;;;;;;-145.88;100.00;58037.16;6079954;19;1074;-73
2022/12/25 09:52:01;;;;;;;;;;;;;;;-145.88;100.00;58037.16;6081606;19;1514;-73
2022/12/25 09:54:06;;;;;;;;;;;;;;;-145.88;100.00;58037.16;6091392;19;1688;-73
2022/12/25 09:56:12;;;;;;;;;;;;;;;-145.88;100.00;58037.16;6092069;19;1742;-74
2022/12/25 09:58:16;;;;;;;;;;;;;;;-145.88;100.00;58037.16;6080722;19;1856;-73
2022/12/25 10:00:20;;;;;;;;;;;;;;;-145.88;100.00;58037.16;6065472;19;1831;-73
2022/12/25 10:02:39;;;;;;;;;;;;;;;-145.88;100.00;58037.16;6093920;19;1473;-74
2022/12/25 10:04:54;;;;;;;;;;;;;;;-145.88;100.00;58037.16;6101453;19;1616;-73
2022/12/25 10:07:06;;;;;;;;;;;;;;;-145.88;100.00;58037.16;6096506;19;1931;-72
2022/12/25 10:11:26;;;;;;;;;;;;;;;-145.88;100.00;58037.16;6105641;19;1981;-83
2022/12/25 10:13:46;;;;;;;;;;;;;;;-145.88;100.00;58037.16;6121999;19;1550;-83
2022/12/25 10:15:53;;;;;;;;;;;;;;;-145.88;100.00;58037.16;6121786;19;1495;-83
2022/12/25 10:18:06;;;;;;;;;;;;;;;-145.88;100.00;58037.16;6107196;19;3346;-72
2022/12/25 10:20:15;;;;;;;;;;;;;;;-145.88;100.00;58037.16;6092452;19;1414;-72
2022/12/25 10:22:25;;;;;;;;;;;;;;;-145.88;100.00;58037.16;6066474;19;1947;-72
2022/12/25 10:24:33;;;;;;;;;;;;;;;-145.88;100.00;58037.16;6120648;19;1539;-72
2022/12/25 10:26:36;;;;;;;;;;;;;;;-145.88;100.00;58037.16;6117569;19;1720;-72
2022/12/25 10:28:43;;;;;;;;;;;;;;;-145.88;100.00;58037.16;6109719;19;1482;-72
2022/12/25 10:30:46;;;;;;;;;;;;;;;-145.88;100.00;58037.16;6126194;19;1784;-73
2022/12/25 10:32:50;;;;;;;;;;;;;;;-145.88;100.00;58037.16;6115314;19;1481;-71
2022/12/25 10:34:53;;;;;;;;;;;;;;;-145.88;100.00;58037.16;6109763;19;1065;-72
2022/12/25 10:36:57;;;;;;;;;;;;;;;-145.88;100.00;58037.16;6122718;19;1787;-72
2022/12/25 10:39:03;;;;;;;;;;;;;;;-145.88;100.00;58037.16;6118124;19;1850;-73
2022/12/25 10:41:15;;;;;;;;;;;;;;;-145.88;100.00;58037.16;6123734;19;1581;-73
2022/12/25 10:43:22;;;;;;;;;;;;;;;-145.88;100.00;58037.16;6126229;19;1717;-72
2022/12/25 10:45:26;;;;;;;;;;;;;;;-145.88;100.00;58037.16;6099148;19;1733;-72
2022/12/25 10:47:33;;;;;;;;;;;;;;;-145.88;100.00;58037.16;6113916;19;1811;-72
2022/12/25 10:49:38;;;;;;;;;;;;;;;-145.88;100.00;58037.16;6122389;19;969;-73
2022/12/25 10:51:41;;;;;;;;;;;;;;;-145.88;100.00;58037.16;6123418;19;1721;-73
2022/12/25 10:53:45;;;;;;;;;;;;;;;-145.88;100.00;58037.16;6125023;19;1861;-73
2022/12/25 10:56:02;;;;;;;;;;;;;;;-145.88;100.00;58037.16;6120787;19;1893;-72
2022/12/25 10:58:05;;;;;;;;;;;;;;;-145.88;100.00;58037.16;6099528;19;1854;-71
2022/12/25 11:00:21;;;;;;;;;;;;;;;-145.88;100.00;58037.16;6126761;19;1455;-72
2022/12/25 11:02:26;;;;;;;;;;;;;;;-145.88;100.00;58037.16;6123183;19;1068;-71
2022/12/25 11:04:30;;;;;;;;;;;;;;;-145.88;100.00;58037.16;6123560;19;1827;-73
2022/12/25 11:06:34;;;;;;;;;;;;;;;-145.88;100.00;58037.16;6127107;19;1223;-73
2022/12/25 11:08:37;;;;;;;;;;;;;;;-145.88;100.00;58037.16;6088790;19;1457;-73
2022/12/25 11:10:43;;;;;;;;;;;;;;;-145.88;100.00;58037.16;6125540;19;1637;-72
2022/12/25 11:12:49;;;;;;;;;;;;;;;-145.88;100.00;58037.16;6122472;19;1147;-72
2022/12/25 11:14:56;;;;;;;;;;;;;;;-145.88;100.00;58037.16;6125112;19;1737;-73
2022/12/25 11:17:09;;;;;;;;;;;;;;;-145.88;100.00;58037.16;6121052;19;1058;-72
2022/12/25 11:19:24;;;;;;;;;;;;;;;-145.88;100.00;58037.16;6106605;19;1868;-72
2022/12/25 11:21:29;;;;;;;;;;;;;;;-145.88;100.00;58037.16;6111635;19;1443;-72
2022/12/25 11:23:33;;;;;;;;;;;;;;;-145.88;100.00;58037.16;6122992;19;1017;-73
2022/12/25 11:26:44;;;;;;;;;;;;;;;;;;5626468;19;15074;-67
2022/12/25 11:36:45;;;;;;;;;;;;;;;22.89;28.82;95759.41;4302510;19;12558;-69
2022/12/25 11:46:43;;;;;;;;;;;;;;;22.97;31.31;95758.31;4757730;27;93731;-71
2022/12/25 11:51:35;;;;;;;;;;;;;;;24.39;28.45;95762.41;5117464;27;1680;-72
2022/12/25 11:54:15;;;;;;;;;;;;;;;23.84;28.85;95761.88;5101856;28;1646;-72
2022/12/25 11:56:41;;;;;;;;;;;;;;;23.68;29.20;95764.94;5104127;28;1772;-73
2022/12/25 11:59:13;;;;;;;;;;;;;;;23.65;29.49;95765.34;5088344;28;1396;-74
2022/12/25 12:01:42;;;;;;;;;;;;;;;23.66;29.36;95767.84;5124614;27;1662;-73
2022/12/25 12:04:27;;;;;;;;;;;;;;;23.68;29.65;95771.16;5105416;28;1639;-73
2022/12/25 12:06:55;;;;;;;;;;;;;;;23.69;29.56;95774.66;5089483;28;1620;-71
2022/12/25 12:09:23;;;;;;;;;;;;;;;23.68;29.78;95767.63;5096683;28;1913;-74
2022/12/25 12:11:57;;;;;;;;;;;;;;;23.69;29.81;95769.28;5106851;28;1601;-74
2022/12/25 12:14:44;;;;;;;;;;;;;;;23.71;29.92;95772.63;5104466;28;1690;-73
2022/12/25 12:17:11;;;;;;;;;;;;;;;23.70;29.77;95762.88;5095464;27;1705;-70
2022/12/25 12:19:37;;;;;;;;;;;;;;;23.71;29.86;95769.94;5074635;28;1715;-72
2022/12/25 12:22:03;;;;;;;;;;;;;;;23.72;29.89;95766.22;5083509;28;1635;-73
2022/12/25 12:24:37;;;;;;;;;;;;;;;23.71;30.17;95764.59;5081778;28;1785;-72
2022/12/25 12:27:26;;;;;;;;;;;;;;;23.72;29.91;95774.25;5080504;28;1658;-72
2022/12/25 12:29:54;;;;;;;;;;;;;;;23.71;30.11;95770.75;5069629;28;1906;-71
2022/12/25 12:32:34;;;;;;;;;;;;;;;23.72;29.99;95782.31;5084124;28;1683;-72
2022/12/25 12:34:59;;;;;;;;;;;;;;;23.74;30.17;95782.94;5106219;28;1749;-72
2022/12/25 12:37:35;;;;;;;;;;;;;;;23.84;29.81;95788.66;5073881;28;1641;-73
2022/12/25 12:40:01;;;;;;;;;;;;;;;23.88;30.00;95779.22;5077542;28;1623;-73
2022/12/25 12:42:32;;;;;;;;;;;;;;;23.96;29.65;95778.16;5077085;28;1757;-70
2022/12/25 12:45:07;;;;;;;;;;;;;;;23.99;30.07;95778.56;5107093;28;1791;-72
2022/12/25 12:47:46;;;;;;;;;;;;;;;24.01;29.76;95786.41;5070001;28;1647;-73